Decoded Metar for CYAH (LA GRANDE IV ARP in QC, CANADA) (IATA:YAH) | Meteo·Mobile Aviation Weather
aviador You're here:

CYAH Decoded Metar

LA GRANDE IV ARP in QC, CANADA
Report Time2018-10-18 09:43:00
UTC Time2018-10-18 10:09:03
Flight Rules vfr VFR
Wind290° at 11 Gusting to 17 kt
W.Decomp.*RWY 27: 8.5 kt HW 6.9 kt RCW
W.Rank290° ranks 14
Current wind is above 290° avg. (7.5)
Visibility9999 m
Phenomena:N/A
Clouds:Few 028 Hf
Overcast 038 Hf
Expected CloudBase > 2,000 ft AGL from Temp-Dew spread
Ceiling3,800 ft
Temp-5°C (ISA -18)
Dew Point-10°C (68% RH)
AAT-12.0°C
QNH1008 hPa
Density Alt-1,001 ft
Elevation1,004 ft
Report Wrong Elevation
Raw Report
SPECI CYAH 180943Z AUTO 29011G17KT 9SM FEW028 OVC038 M05/M10 A2978
RMK SLP106=

Extra information for CYAH:More info

Metar Taf Metar & Taf Last 4 Metars F.Rules Stats Wind Profile Meteogram Temp Stats Airport Information Weather charts Add Link Nearby VenuesMetar ALERT Operation Metar Decoded Social comments